createdAt,value
2022-08-17T00:00:43.930Z,17.83
2022-08-17T00:01:26.296Z,17.86
2022-08-17T00:02:26.985Z,17.71
2022-08-17T00:03:24.697Z,17.78
2022-08-17T00:04:24.695Z,17.78
2022-08-17T00:05:24.687Z,17.68
2022-08-17T00:06:24.697Z,17.67
2022-08-17T00:07:25.187Z,17.71
2022-08-17T00:08:24.654Z,17.68
2022-08-17T00:09:24.657Z,17.83
2022-08-17T00:10:24.651Z,17.74
2022-08-17T00:11:24.655Z,17.70
2022-08-17T00:12:42.984Z,17.72
2022-08-17T00:13:26.308Z,17.74
2022-08-17T00:14:25.244Z,17.67
2022-08-17T00:15:24.605Z,17.60
2022-08-17T00:16:55.879Z,17.64
2022-08-17T00:17:25.597Z,17.56
2022-08-17T00:19:01.268Z,17.59
2022-08-17T00:19:25.576Z,17.64
2022-08-17T00:20:30.538Z,17.59
2022-08-17T00:21:25.605Z,17.56
2022-08-17T00:22:30.857Z,17.57
2022-08-17T00:23:25.539Z,17.51
2022-08-17T00:24:24.530Z,17.52
2022-08-17T00:25:25.237Z,17.59
2022-08-17T00:26:43.529Z,17.56
2022-08-17T00:27:25.502Z,17.45
2022-08-17T00:28:24.499Z,17.51
2022-08-17T00:29:24.489Z,17.56
2022-08-17T00:30:24.501Z,17.57
2022-08-17T00:33:14.003Z,17.42
2022-08-17T00:33:25.755Z,17.44
2022-08-17T00:34:24.442Z,17.31
2022-08-17T00:35:24.428Z,17.31
2022-08-17T00:36:24.427Z,17.26
2022-08-17T00:37:25.517Z,17.26
2022-08-17T00:38:25.501Z,17.36
2022-08-17T00:39:25.554Z,17.36
2022-08-17T00:40:25.479Z,17.23
2022-08-17T00:41:25.495Z,17.41
2022-08-17T00:42:30.804Z,17.31
2022-08-17T00:43:27.452Z,17.29
2022-08-17T00:44:25.449Z,17.23
2022-08-17T00:45:25.436Z,17.29
2022-08-17T00:46:25.444Z,17.24
2022-08-17T00:47:25.429Z,17.15
2022-08-17T00:48:30.203Z,17.22
2022-08-17T00:49:26.406Z,17.20
2022-08-17T00:50:25.409Z,17.12
2022-08-17T00:51:25.405Z,17.20
2022-08-17T00:52:25.381Z,17.12
2022-08-17T00:53:26.314Z,17.22
2022-08-17T00:54:25.359Z,17.20
2022-08-17T00:55:25.360Z,17.06
2022-08-17T00:56:25.369Z,17.05
2022-08-17T00:57:25.341Z,17.09
2022-08-17T00:58:30.394Z,17.09
2022-08-17T00:59:26.893Z,17.09
2022-08-17T01:00:25.326Z,17.06
2022-08-17T01:01:25.370Z,17.04
2022-08-17T01:02:25.298Z,17.08
2022-08-17T01:03:25.296Z,17.05
2022-08-17T01:04:25.279Z,17.02
2022-08-17T01:05:25.550Z,17.06
2022-08-17T01:06:25.268Z,17.04
2022-08-17T01:07:25.257Z,17.01
2022-08-17T01:08:25.249Z,17.02
2022-08-17T01:09:25.241Z,16.97
2022-08-17T01:11:00.145Z,16.91
2022-08-17T01:11:26.273Z,16.93
2022-08-17T01:12:25.220Z,16.93
2022-08-17T01:13:25.215Z,16.93
2022-08-17T01:14:25.819Z,16.84
2022-08-17T01:15:26.839Z,16.81
2022-08-17T01:16:25.194Z,16.86
2022-08-17T01:17:25.200Z,16.78
2022-08-17T01:18:25.182Z,16.79
2022-08-17T01:19:25.163Z,16.75
2022-08-17T01:20:25.183Z,16.66
2022-08-17T01:21:25.166Z,16.74
2022-08-17T01:22:25.140Z,16.68
2022-08-17T01:23:25.139Z,16.72
2022-08-17T01:24:25.120Z,16.68
2022-08-17T01:25:25.107Z,16.74
2022-08-17T01:26:25.906Z,16.71
2022-08-17T01:27:25.112Z,16.72
2022-08-17T01:28:33.630Z,16.76
2022-08-17T01:29:26.079Z,16.71
2022-08-17T01:30:58.066Z,16.71
2022-08-17T01:31:26.090Z,16.71
2022-08-17T01:32:25.055Z,16.68
2022-08-17T01:33:25.051Z,16.72
2022-08-17T01:34:25.038Z,16.68
2022-08-17T01:35:26.039Z,16.66
2022-08-17T01:36:25.017Z,16.78
2022-08-17T01:37:25.088Z,16.64
2022-08-17T01:38:27.175Z,16.61
2022-08-17T01:39:25.014Z,16.46
2022-08-17T01:40:24.988Z,16.60
2022-08-17T01:41:25.004Z,16.54
2022-08-17T01:42:24.983Z,16.53
2022-08-17T01:43:24.967Z,16.51
2022-08-17T01:44:24.968Z,16.47
2022-08-17T01:45:24.996Z,16.64
2022-08-17T01:46:24.938Z,16.54
2022-08-17T01:47:25.915Z,16.49
2022-08-17T01:48:24.923Z,16.56
2022-08-17T01:49:24.918Z,16.53
2022-08-17T01:50:24.904Z,16.57
2022-08-17T01:51:24.919Z,16.46
2022-08-17T01:52:24.892Z,16.53
2022-08-17T01:53:25.836Z,16.61
2022-08-17T01:54:24.876Z,16.65
2022-08-17T01:55:27.422Z,16.53
2022-08-17T01:56:25.865Z,16.56
2022-08-17T01:57:24.857Z,16.60
2022-08-17T01:58:24.834Z,16.54
2022-08-17T01:59:24.827Z,16.51
2022-08-17T02:00:24.823Z,16.56
2022-08-17T02:01:24.896Z,16.58
2022-08-17T02:02:31.245Z,16.58
2022-08-17T02:03:25.804Z,16.47
2022-08-17T02:04:25.415Z,16.58
2022-08-17T02:05:24.792Z,16.49
2022-08-17T02:06:27.525Z,16.49
2022-08-17T02:07:26.961Z,16.39
2022-08-17T02:08:38.934Z,16.42
2022-08-17T02:09:29.526Z,16.41
2022-08-17T02:10:24.761Z,16.47
2022-08-17T02:11:25.756Z,16.33
2022-08-17T02:12:39.444Z,16.39
2022-08-17T02:13:25.737Z,16.43
2022-08-17T02:14:24.719Z,16.21
2022-08-17T02:15:24.708Z,16.33
2022-08-17T02:16:24.698Z,16.31
2022-08-17T02:17:24.693Z,16.36
2022-08-17T02:18:24.687Z,16.43
2022-08-17T02:19:24.681Z,16.35
2022-08-17T02:20:41.402Z,16.36
2022-08-17T02:21:25.656Z,16.39
2022-08-17T02:22:24.646Z,16.46
2022-08-17T02:23:24.640Z,16.46
2022-08-17T02:24:58.944Z,16.28
2022-08-17T02:25:25.648Z,16.41
2022-08-17T02:26:25.940Z,16.39
2022-08-17T02:27:24.601Z,16.39
2022-08-17T02:28:24.601Z,16.42
2022-08-17T02:29:24.588Z,16.36
2022-08-17T02:31:00.835Z,16.33
2022-08-17T02:31:25.588Z,16.46
2022-08-17T02:32:28.108Z,16.41
2022-08-17T02:33:24.557Z,16.42
2022-08-17T02:34:25.550Z,16.54
2022-08-17T02:35:24.543Z,16.50
2022-08-17T02:36:27.403Z,16.50
2022-08-17T02:37:25.538Z,16.53
2022-08-17T02:38:24.516Z,16.60
2022-08-17T02:39:24.551Z,16.51
2022-08-17T02:40:28.619Z,16.51
2022-08-17T02:41:25.521Z,16.66
2022-08-17T02:42:24.485Z,16.51
2022-08-17T02:43:24.506Z,16.50
2022-08-17T02:44:39.494Z,16.69
2022-08-17T02:45:25.465Z,16.64
2022-08-17T02:46:24.484Z,16.71
2022-08-17T02:47:24.436Z,16.66
2022-08-17T02:48:31.186Z,16.66
2022-08-17T02:49:25.435Z,16.69
2022-08-17T02:50:24.420Z,16.54
2022-08-17T02:51:24.448Z,16.60
2022-08-17T02:52:42.927Z,16.50
2022-08-17T02:53:25.686Z,16.57
2022-08-17T02:54:41.303Z,16.60
2022-08-17T02:55:25.374Z,16.50
2022-08-17T02:56:24.382Z,16.53
2022-08-17T02:57:24.362Z,16.49
2022-08-17T02:58:34.498Z,16.49
2022-08-17T02:59:25.341Z,16.49
2022-08-17T03:00:24.368Z,16.50
2022-08-17T03:01:24.373Z,16.41
2022-08-17T03:02:24.318Z,16.47
2022-08-17T03:03:24.317Z,16.53
2022-08-17T03:04:24.303Z,16.43
2022-08-17T03:05:24.854Z,16.38
2022-08-17T03:06:24.308Z,16.49
2022-08-17T03:07:24.272Z,16.42
2022-08-17T03:08:24.278Z,16.39
2022-08-17T03:09:24.289Z,16.46
2022-08-17T03:10:24.252Z,16.41
2022-08-17T03:11:24.244Z,16.49
2022-08-17T03:12:24.252Z,16.35
2022-08-17T03:13:24.229Z,16.47
2022-08-17T03:14:26.382Z,16.46
2022-08-17T03:15:24.219Z,16.47
2022-08-17T03:16:24.206Z,16.42
2022-08-17T03:17:24.205Z,16.47
2022-08-17T03:18:26.067Z,16.35
2022-08-17T03:19:24.188Z,16.24
2022-08-17T03:20:24.181Z,16.23
2022-08-17T03:21:24.178Z,16.17
2022-08-17T03:22:37.230Z,16.23
2022-08-17T03:23:25.424Z,16.13
2022-08-17T03:24:28.619Z,16.15
2022-08-17T03:25:24.129Z,16.10
2022-08-17T03:26:24.119Z,16.12
2022-08-17T03:27:25.103Z,16.13
2022-08-17T03:28:24.113Z,16.01
2022-08-17T03:29:24.089Z,16.02
2022-08-17T03:30:24.086Z,16.12
2022-08-17T03:31:24.097Z,16.02
2022-08-17T03:32:24.103Z,16.05
2022-08-17T03:33:24.064Z,16.02
2022-08-17T03:34:24.866Z,16.01
2022-08-17T03:35:24.044Z,15.94
2022-08-17T03:36:24.870Z,16.02
2022-08-17T03:37:24.026Z,16.10
2022-08-17T03:38:24.032Z,16.17
2022-08-17T03:39:24.112Z,16.10
2022-08-17T03:40:55.403Z,16.02
2022-08-17T03:41:25.027Z,16.13
2022-08-17T03:42:32.435Z,16.17
2022-08-17T03:43:24.984Z,16.00
2022-08-17T03:44:23.994Z,16.05
2022-08-17T03:45:23.975Z,15.97
2022-08-17T03:46:33.877Z,16.04
2022-08-17T03:47:24.973Z,15.94
2022-08-17T03:48:23.944Z,15.91
2022-08-17T03:49:23.937Z,15.83
2022-08-17T03:50:23.942Z,15.84
2022-08-17T03:51:24.875Z,15.92
2022-08-17T03:52:25.915Z,15.84
2022-08-17T03:53:23.905Z,15.77
2022-08-17T03:54:23.912Z,15.86
2022-08-17T03:55:32.908Z,15.77
2022-08-17T03:56:24.920Z,15.80
2022-08-17T03:57:23.866Z,15.82
2022-08-17T03:58:23.878Z,15.82
2022-08-17T03:59:23.861Z,15.77
2022-08-17T04:00:23.848Z,15.75
2022-08-17T04:01:23.880Z,15.88
2022-08-17T04:02:24.477Z,15.82
2022-08-17T04:03:23.826Z,15.80
2022-08-17T04:04:27.734Z,15.80
2022-08-17T04:05:23.818Z,15.64
2022-08-17T04:06:23.810Z,15.70
2022-08-17T04:07:23.812Z,15.67
2022-08-17T04:08:23.791Z,15.73
2022-08-17T04:09:23.972Z,15.75
2022-08-17T04:10:26.477Z,15.75
2022-08-17T04:11:24.757Z,15.76
2022-08-17T04:12:23.746Z,15.84
2022-08-17T04:13:24.257Z,15.82
2022-08-17T04:14:23.744Z,15.92
2022-08-17T04:15:23.746Z,15.95
2022-08-17T04:16:23.736Z,15.86
2022-08-17T04:17:23.711Z,15.98
2022-08-17T04:18:24.384Z,15.97
2022-08-17T04:19:24.464Z,15.90
2022-08-17T04:20:23.698Z,16.01
2022-08-17T04:21:23.696Z,16.12
2022-08-17T04:22:31.377Z,16.08
2022-08-17T04:23:24.659Z,16.12
2022-08-17T04:24:23.683Z,16.17
2022-08-17T04:25:23.719Z,16.15
2022-08-17T04:26:53.761Z,16.09
2022-08-17T04:27:24.620Z,16.29
2022-08-17T04:28:23.617Z,16.17
2022-08-17T04:29:23.617Z,16.24
2022-08-17T04:30:24.003Z,16.28
2022-08-17T04:31:23.604Z,16.12
2022-08-17T04:33:02.212Z,16.20
2022-08-17T04:33:25.571Z,16.12
2022-08-17T04:34:23.579Z,16.13
2022-08-17T04:35:23.561Z,16.23
2022-08-17T04:36:23.583Z,16.29
2022-08-17T04:37:23.548Z,16.17
2022-08-17T04:38:23.536Z,16.28
2022-08-17T04:39:23.536Z,16.13
2022-08-17T04:40:26.044Z,16.09
2022-08-17T04:41:23.525Z,16.10
2022-08-17T04:42:23.499Z,16.05
2022-08-17T04:43:23.504Z,16.12
2022-08-17T04:44:27.211Z,16.10
2022-08-17T04:45:24.489Z,16.17
2022-08-17T04:46:23.465Z,16.13
2022-08-17T04:47:23.456Z,16.08
2022-08-17T04:48:23.449Z,16.15
2022-08-17T04:49:24.437Z,16.17
2022-08-17T04:50:23.434Z,16.26
2022-08-17T04:51:23.447Z,16.31
2022-08-17T04:52:32.331Z,16.31
2022-08-17T04:53:24.417Z,16.41
2022-08-17T04:54:23.410Z,16.39
2022-08-17T04:55:23.397Z,16.53
2022-08-17T04:56:23.439Z,16.56
2022-08-17T04:57:23.378Z,16.61
2022-08-17T04:58:23.375Z,16.71
2022-08-17T04:59:23.360Z,16.93
2022-08-17T05:00:23.354Z,17.15
2022-08-17T05:01:24.556Z,17.42
2022-08-17T05:02:23.336Z,17.71
2022-08-17T05:03:23.339Z,17.89
2022-08-17T05:04:34.859Z,18.04
2022-08-17T05:05:24.314Z,18.13
2022-08-17T05:06:23.330Z,18.45
2022-08-17T05:07:25.351Z,18.70
2022-08-17T05:08:24.290Z,18.84
2022-08-17T05:09:23.278Z,18.90
2022-08-17T05:10:23.309Z,19.02
2022-08-17T05:11:24.290Z,19.18
2022-08-17T05:12:23.292Z,19.37
2022-08-17T05:13:23.266Z,19.48
2022-08-17T05:14:32.341Z,19.51
2022-08-17T05:15:24.230Z,19.67
2022-08-17T05:16:23.228Z,19.92
2022-08-17T05:17:23.230Z,20.10
2022-08-17T05:18:24.452Z,20.26
2022-08-17T05:19:23.261Z,20.52
2022-08-17T05:20:23.188Z,20.65
2022-08-17T05:21:23.189Z,20.80
2022-08-17T05:22:23.199Z,20.96
2022-08-17T05:23:23.172Z,20.96
2022-08-17T05:24:38.943Z,21.07
2022-08-17T05:25:25.773Z,21.30
2022-08-17T05:26:26.898Z,21.51
2022-08-17T05:27:23.486Z,21.76
2022-08-17T05:28:27.460Z,21.96
2022-08-17T05:29:23.906Z,21.95
2022-08-17T05:30:24.117Z,22.04
2022-08-17T05:31:23.100Z,22.29
2022-08-17T05:32:39.406Z,22.38
2022-08-17T05:33:24.078Z,22.15
2022-08-17T05:34:23.075Z,22.13
2022-08-17T05:35:23.071Z,22.23
2022-08-17T05:36:41.933Z,22.10
2022-08-17T05:37:24.069Z,22.26
2022-08-17T05:38:23.052Z,22.26
2022-08-17T05:39:23.906Z,22.30
2022-08-17T05:40:23.045Z,22.48
2022-08-17T05:41:23.045Z,22.65
2022-08-17T05:42:23.046Z,22.87
2022-08-17T05:43:23.022Z,23.18
2022-08-17T05:44:23.008Z,23.39
2022-08-17T05:45:54.678Z,23.66
2022-08-17T05:46:23.986Z,23.87
2022-08-17T05:47:22.993Z,24.05
2022-08-17T05:48:39.208Z,24.14
2022-08-17T05:49:23.985Z,24.36
2022-08-17T05:50:26.048Z,24.42
2022-08-17T05:51:23.952Z,24.20
2022-08-17T05:52:22.947Z,24.18
2022-08-17T05:53:22.935Z,24.33
2022-08-17T05:54:22.939Z,24.42
2022-08-17T05:55:22.925Z,24.35
2022-08-17T05:56:29.840Z,24.58
2022-08-17T05:57:23.892Z,24.76
2022-08-17T05:58:22.885Z,24.98
2022-08-17T05:59:22.894Z,24.95
2022-08-17T06:00:30.166Z,25.13
2022-08-17T06:01:23.965Z,25.32
2022-08-17T06:02:22.852Z,25.40
2022-08-17T06:03:22.843Z,25.54
2022-08-17T06:04:22.838Z,25.40
2022-08-17T06:05:22.866Z,25.35
2022-08-17T06:06:22.829Z,25.53
2022-08-17T06:07:22.818Z,25.73
2022-08-17T06:08:22.802Z,25.85
2022-08-17T06:09:27.724Z,25.88
2022-08-17T06:10:24.794Z,25.84
2022-08-17T06:11:22.881Z,25.93
2022-08-17T06:12:22.782Z,25.96
2022-08-17T06:13:23.421Z,26.03
2022-08-17T06:14:22.754Z,25.95
2022-08-17T06:15:22.755Z,25.95
2022-08-17T06:16:33.521Z,26.13
2022-08-17T06:17:23.817Z,25.80
2022-08-17T06:18:22.727Z,25.78
2022-08-17T06:19:22.717Z,25.47
2022-08-17T06:20:22.710Z,25.06
2022-08-17T06:21:23.744Z,24.89
2022-08-17T06:22:23.708Z,24.80
2022-08-17T06:23:22.689Z,24.91
2022-08-17T06:24:22.675Z,24.92
2022-08-17T06:25:22.677Z,24.89
2022-08-17T06:26:25.915Z,24.73
2022-08-17T06:27:23.656Z,24.93
2022-08-17T06:28:22.646Z,25.21
2022-08-17T06:29:22.652Z,25.43
2022-08-17T06:30:22.631Z,25.62
2022-08-17T06:31:22.649Z,25.99
2022-08-17T06:32:22.625Z,26.16
2022-08-17T06:33:22.621Z,26.15
2022-08-17T06:34:22.640Z,26.02
2022-08-17T06:35:22.604Z,25.96
2022-08-17T06:36:22.612Z,26.19
2022-08-17T06:37:22.575Z,26.10
2022-08-17T06:38:37.796Z,26.13
2022-08-17T06:39:23.567Z,26.59
2022-08-17T06:40:22.556Z,26.68
2022-08-17T06:41:22.599Z,27.11
2022-08-17T06:42:59.889Z,27.30
2022-08-17T06:43:23.557Z,27.30
2022-08-17T06:44:42.207Z,27.35
2022-08-17T06:45:23.529Z,27.55
2022-08-17T06:46:22.506Z,27.70
2022-08-17T06:47:28.445Z,27.77
2022-08-17T06:48:23.499Z,27.60
2022-08-17T06:49:22.509Z,27.29
2022-08-17T06:50:22.478Z,27.15
2022-08-17T06:51:22.508Z,27.27
2022-08-17T06:52:43.419Z,27.52
2022-08-17T06:53:23.453Z,27.55
2022-08-17T06:54:22.452Z,27.77
2022-08-17T06:55:22.441Z,27.98
2022-08-17T06:56:22.447Z,28.01
2022-08-17T06:57:22.426Z,28.05
2022-08-17T06:58:22.419Z,28.30
2022-08-17T06:59:22.426Z,28.05
2022-08-17T07:00:22.416Z,28.15
2022-08-17T07:01:22.421Z,28.20
2022-08-17T07:02:29.087Z,27.96
2022-08-17T07:03:23.384Z,27.83
2022-08-17T07:04:22.390Z,27.74
2022-08-17T07:05:22.381Z,27.78
2022-08-17T07:06:22.357Z,27.93
2022-08-17T07:07:22.363Z,27.78
2022-08-17T07:08:26.401Z,28.00
2022-08-17T07:09:23.348Z,27.95
2022-08-17T07:10:22.334Z,27.87
2022-08-17T07:11:22.327Z,28.04
2022-08-17T07:12:22.309Z,28.29
2022-08-17T07:13:22.314Z,28.27
2022-08-17T07:14:22.300Z,28.08
2022-08-17T07:15:22.285Z,28.07
2022-08-17T07:16:22.279Z,28.10
2022-08-17T07:17:22.270Z,28.20
2022-08-17T07:18:23.262Z,28.04
2022-08-17T07:19:22.259Z,28.14
2022-08-17T07:20:22.262Z,28.05
2022-08-17T07:21:26.207Z,27.71
2022-08-17T07:22:23.295Z,27.49
2022-08-17T07:23:22.221Z,27.58
2022-08-17T07:24:26.106Z,27.51
2022-08-17T07:25:23.202Z,27.37
2022-08-17T07:26:22.212Z,27.52
2022-08-17T07:27:22.194Z,27.73
2022-08-17T07:28:22.186Z,28.00
2022-08-17T07:29:22.181Z,28.14
2022-08-17T07:30:22.188Z,28.23
2022-08-17T07:31:22.172Z,28.33
2022-08-17T07:32:22.167Z,28.20
2022-08-17T07:33:22.147Z,28.30
2022-08-17T07:34:22.140Z,28.42
2022-08-17T07:35:22.155Z,28.49
2022-08-17T07:36:25.416Z,28.64
2022-08-17T07:37:23.118Z,28.52
2022-08-17T07:38:24.661Z,28.54
2022-08-17T07:39:22.108Z,28.64
2022-08-17T07:40:22.171Z,28.82
2022-08-17T07:41:22.088Z,28.79
2022-08-17T07:42:22.093Z,28.64
2022-08-17T07:43:23.614Z,28.72
2022-08-17T07:44:22.064Z,28.84
2022-08-17T07:45:22.061Z,28.93
2022-08-17T07:46:22.056Z,29.13
2022-08-17T07:47:22.062Z,29.12
2022-08-17T07:48:22.041Z,29.10
2022-08-17T07:49:22.017Z,29.04
2022-08-17T07:50:25.788Z,28.89
2022-08-17T07:51:23.030Z,28.70
2022-08-17T07:52:48.211Z,28.94
2022-08-17T07:53:22.991Z,29.07
2022-08-17T07:54:21.987Z,29.10
2022-08-17T07:55:21.990Z,29.20
2022-08-17T07:56:21.969Z,29.50
2022-08-17T07:57:24.359Z,29.53
2022-08-17T07:58:22.960Z,29.65
2022-08-17T07:59:23.693Z,29.51
2022-08-17T08:00:23.809Z,29.60
2022-08-17T08:01:22.993Z,29.61
2022-08-17T08:02:22.053Z,29.41
2022-08-17T08:03:22.107Z,29.08
2022-08-17T08:04:43.240Z,28.59
2022-08-17T08:05:30.749Z,28.51
2022-08-17T08:06:22.897Z,28.62
2022-08-17T08:07:21.875Z,28.86
2022-08-17T08:08:22.576Z,29.02
2022-08-17T08:09:21.867Z,29.26
2022-08-17T08:10:21.918Z,29.35
2022-08-17T08:11:21.853Z,29.31
2022-08-17T08:12:22.554Z,29.66
2022-08-17T08:13:21.849Z,29.76
2022-08-17T08:14:21.831Z,29.95
2022-08-17T08:15:22.821Z,30.09
2022-08-17T08:16:21.815Z,30.30
2022-08-17T08:17:22.555Z,30.43
2022-08-17T08:18:54.423Z,30.73
2022-08-17T08:19:22.800Z,30.88
2022-08-17T08:20:51.213Z,31.06
2022-08-17T08:21:22.816Z,30.97
2022-08-17T08:22:21.791Z,30.92
2022-08-17T08:23:21.766Z,30.78
2022-08-17T08:24:21.758Z,30.39
2022-08-17T08:25:21.765Z,29.97
2022-08-17T08:26:21.748Z,29.78
2022-08-17T08:27:21.729Z,29.72
2022-08-17T08:28:21.715Z,29.86
2022-08-17T08:29:21.724Z,30.16
2022-08-17T08:30:21.733Z,30.30
2022-08-17T08:31:21.690Z,30.51
2022-08-17T08:32:21.775Z,30.90
2022-08-17T08:33:21.677Z,31.06
2022-08-17T08:34:59.086Z,31.10
2022-08-17T08:35:22.701Z,31.18
2022-08-17T08:37:14.670Z,31.24
2022-08-17T08:37:32.644Z,31.29
2022-08-17T08:38:23.639Z,31.46
2022-08-17T08:39:21.637Z,31.54
2022-08-17T08:40:21.629Z,31.78
2022-08-17T08:41:21.622Z,31.77
2022-08-17T08:42:21.629Z,31.81
2022-08-17T08:43:21.597Z,31.90
2022-08-17T08:44:21.606Z,31.74
2022-08-17T08:45:22.625Z,31.64
2022-08-17T08:46:21.583Z,31.36
2022-08-17T08:47:21.570Z,31.33
2022-08-17T08:48:45.874Z,31.37
2022-08-17T08:49:38.998Z,31.43
2022-08-17T08:50:37.154Z,31.54
2022-08-17T08:51:22.552Z,31.64
2022-08-17T08:52:21.529Z,31.70
2022-08-17T08:53:21.545Z,31.69
2022-08-17T08:54:26.580Z,31.77
2022-08-17T08:55:22.525Z,31.85
2022-08-17T08:56:21.525Z,31.90
2022-08-17T08:57:26.709Z,32.01
2022-08-17T08:58:32.068Z,32.08
2022-08-17T08:59:22.499Z,32.11
2022-08-17T09:00:21.479Z,32.23
2022-08-17T09:01:21.495Z,32.37
2022-08-17T09:02:21.500Z,32.30
2022-08-17T09:03:31.567Z,32.22
2022-08-17T09:04:25.448Z,32.29
2022-08-17T09:05:22.454Z,32.36
2022-08-17T09:06:32.469Z,32.26
2022-08-17T09:07:22.424Z,32.36
2022-08-17T09:08:21.438Z,32.43
2022-08-17T09:09:21.466Z,32.36
2022-08-17T09:10:21.432Z,32.31
2022-08-17T09:11:21.401Z,32.31
2022-08-17T09:12:21.396Z,32.30
2022-08-17T09:13:21.380Z,32.31
2022-08-17T09:14:28.658Z,32.38
2022-08-17T09:15:22.373Z,32.34
2022-08-17T09:16:21.355Z,32.27
2022-08-17T09:17:21.352Z,32.30
2022-08-17T09:18:59.792Z,32.31
2022-08-17T09:19:23.352Z,32.31
2022-08-17T09:20:28.319Z,32.16
2022-08-17T09:21:22.358Z,32.33
2022-08-17T09:22:21.327Z,32.37
2022-08-17T09:23:21.321Z,32.41
2022-08-17T09:24:21.302Z,32.59
2022-08-17T09:25:21.289Z,32.74
2022-08-17T09:26:21.279Z,32.74
2022-08-17T09:27:22.099Z,32.93
2022-08-17T09:28:21.278Z,32.92
2022-08-17T09:29:21.257Z,33.12
2022-08-17T09:30:21.266Z,33.17
2022-08-17T09:31:21.356Z,33.09
2022-08-17T09:32:21.241Z,33.08
2022-08-17T09:33:21.255Z,33.05
2022-08-17T09:34:21.232Z,33.09
2022-08-17T09:35:22.237Z,33.11
2022-08-17T09:36:21.208Z,33.17
2022-08-17T09:37:21.207Z,33.08
2022-08-17T09:38:21.212Z,33.07
2022-08-17T09:39:21.203Z,32.93
2022-08-17T09:40:21.257Z,33.01
2022-08-17T09:41:21.183Z,32.87
2022-08-17T09:42:21.189Z,32.74
2022-08-17T09:43:21.173Z,32.64
2022-08-17T09:44:23.125Z,32.58
2022-08-17T09:45:21.152Z,32.33
2022-08-17T09:46:21.140Z,32.15
2022-08-17T09:47:21.133Z,32.23
2022-08-17T09:48:22.158Z,32.07
2022-08-17T09:49:25.137Z,32.12
2022-08-17T09:51:05.377Z,32.12
2022-08-17T09:51:22.096Z,32.26
2022-08-17T09:52:21.089Z,32.38
2022-08-17T09:53:21.086Z,32.41
2022-08-17T09:54:38.575Z,32.51
2022-08-17T09:55:23.068Z,32.65
2022-08-17T09:56:21.058Z,32.58
2022-08-17T09:57:36.091Z,32.56
2022-08-17T09:58:23.047Z,32.73
2022-08-17T09:59:22.042Z,32.82
2022-08-17T10:00:21.057Z,32.83
2022-08-17T10:01:21.118Z,32.95
2022-08-17T10:02:21.035Z,33.11
2022-08-17T10:03:21.007Z,33.20
2022-08-17T10:04:22.118Z,33.39
2022-08-17T10:05:20.985Z,33.15
2022-08-17T10:06:22.205Z,33.22
2022-08-17T10:07:22.631Z,33.24
2022-08-17T10:08:21.842Z,33.14
2022-08-17T10:09:20.983Z,33.11
2022-08-17T10:10:20.981Z,33.14
2022-08-17T10:11:20.943Z,33.15
2022-08-17T10:12:21.937Z,33.30
2022-08-17T10:13:21.947Z,33.36
2022-08-17T10:14:37.318Z,33.40
2022-08-17T10:15:23.621Z,33.32
2022-08-17T10:16:21.010Z,33.46
2022-08-17T10:17:20.912Z,33.47
2022-08-17T10:18:20.912Z,33.61
2022-08-17T10:19:20.915Z,33.59
2022-08-17T10:20:20.913Z,33.64
2022-08-17T10:21:20.903Z,33.62
2022-08-17T10:22:35.120Z,33.68
2022-08-17T10:23:21.912Z,33.57
2022-08-17T10:24:21.496Z,33.65
2022-08-17T10:25:20.907Z,33.64
2022-08-17T10:26:20.857Z,33.68
2022-08-17T10:27:20.835Z,33.68
2022-08-17T10:28:22.820Z,33.62
2022-08-17T10:29:21.868Z,33.14
2022-08-17T10:30:20.818Z,33.17
2022-08-17T10:31:36.918Z,33.20
2022-08-17T10:32:23.623Z,33.11
2022-08-17T10:33:20.803Z,33.09
2022-08-17T10:34:21.564Z,33.27
2022-08-17T10:35:21.601Z,33.24
2022-08-17T10:36:20.771Z,33.36
2022-08-17T10:37:20.770Z,33.24
2022-08-17T10:38:24.344Z,33.14
2022-08-17T10:39:20.810Z,32.97
2022-08-17T10:40:20.823Z,32.93
2022-08-17T10:41:20.749Z,32.96
2022-08-17T10:42:32.549Z,32.95
2022-08-17T10:43:21.748Z,33.01
2022-08-17T10:44:39.320Z,33.09
2022-08-17T10:45:21.706Z,33.05
2022-08-17T10:46:30.845Z,33.15
2022-08-17T10:47:21.673Z,33.14
2022-08-17T10:48:20.681Z,33.15
2022-08-17T10:49:20.673Z,33.17
2022-08-17T10:50:20.741Z,32.95
2022-08-17T10:51:20.662Z,32.70
2022-08-17T10:52:20.707Z,32.23
2022-08-17T10:53:20.635Z,32.18
2022-08-17T10:54:20.685Z,32.12
2022-08-17T10:55:21.138Z,32.22
2022-08-17T10:56:20.612Z,32.19
2022-08-17T10:57:20.732Z,32.34
2022-08-17T10:58:21.594Z,32.60
2022-08-17T10:59:21.121Z,32.74
2022-08-17T11:00:25.540Z,32.90
2022-08-17T11:01:23.626Z,32.96
2022-08-17T11:02:20.581Z,32.96
2022-08-17T11:03:21.165Z,32.96
2022-08-17T11:04:20.563Z,32.97
2022-08-17T11:05:21.156Z,32.90
2022-08-17T11:06:20.584Z,32.87
2022-08-17T11:07:20.558Z,32.85
2022-08-17T11:08:20.584Z,32.83
2022-08-17T11:09:20.570Z,32.77
2022-08-17T11:10:20.511Z,32.74
2022-08-17T11:12:26.495Z,32.80
2022-08-17T11:13:26.490Z,32.82
2022-08-17T11:14:27.116Z,32.73
2022-08-17T11:15:26.477Z,32.65
2022-08-17T11:16:27.563Z,32.64
2022-08-17T11:17:27.556Z,32.59
2022-08-17T11:18:27.597Z,32.46
2022-08-17T11:19:27.573Z,32.23
2022-08-17T11:20:27.537Z,32.08
2022-08-17T11:21:27.525Z,32.03
2022-08-17T11:22:32.757Z,31.89
2022-08-17T11:23:29.496Z,32.01
2022-08-17T11:24:27.540Z,32.01
2022-08-17T11:25:27.503Z,32.01
2022-08-17T11:26:27.476Z,31.99
2022-08-17T11:27:27.488Z,31.93
2022-08-17T11:28:27.539Z,31.87
2022-08-17T11:29:27.500Z,31.71
2022-08-17T11:30:27.454Z,31.51
2022-08-17T11:31:38.607Z,31.55
2022-08-17T11:32:28.450Z,31.52
2022-08-17T11:33:27.478Z,31.55
2022-08-17T11:34:27.459Z,31.59
2022-08-17T11:35:28.139Z,31.42
2022-08-17T11:36:27.509Z,31.49
2022-08-17T11:37:27.397Z,31.37
2022-08-17T11:38:28.467Z,31.33
2022-08-17T11:39:27.455Z,31.39
2022-08-17T11:40:27.405Z,31.31
2022-08-17T11:41:27.391Z,31.40
2022-08-17T11:42:27.446Z,31.44
2022-08-17T11:43:27.377Z,31.42
2022-08-17T11:44:27.356Z,31.43
2022-08-17T11:45:32.427Z,31.44
2022-08-17T11:46:27.330Z,31.62
2022-08-17T11:47:27.362Z,31.66
2022-08-17T11:48:28.781Z,31.84
2022-08-17T11:49:28.348Z,32.07
2022-08-17T11:50:28.101Z,32.15
2022-08-17T11:51:28.330Z,32.16
2022-08-17T11:52:27.290Z,32.33
2022-08-17T11:53:27.295Z,32.37
2022-08-17T11:54:34.921Z,32.55
2022-08-17T11:55:36.403Z,32.73
2022-08-17T11:56:29.295Z,32.83
2022-08-17T11:57:27.291Z,32.92
2022-08-17T11:58:27.251Z,33.11
2022-08-17T11:59:27.334Z,33.20
2022-08-17T12:00:27.293Z,33.17
2022-08-17T12:01:27.231Z,33.19
2022-08-17T12:02:27.245Z,32.96
2022-08-17T12:03:27.259Z,32.92
2022-08-17T12:04:27.277Z,32.86
2022-08-17T12:05:28.153Z,32.87
2022-08-17T12:06:30.765Z,32.73
2022-08-17T12:07:27.273Z,32.82
2022-08-17T12:08:27.179Z,32.82
2022-08-17T12:09:27.159Z,32.85
2022-08-17T12:10:27.205Z,32.68
2022-08-17T12:12:01.666Z,32.77
2022-08-17T12:12:28.174Z,32.80
2022-08-17T12:13:27.420Z,32.83
2022-08-17T12:14:45.436Z,32.83
2022-08-17T12:15:29.130Z,32.92
2022-08-17T12:16:27.611Z,32.92
2022-08-17T12:17:39.408Z,32.92
2022-08-17T12:18:28.116Z,32.92
2022-08-17T12:19:27.087Z,32.74
2022-08-17T12:20:27.087Z,32.67
2022-08-17T12:21:27.085Z,32.60
2022-08-17T12:22:27.101Z,32.43
2022-08-17T12:23:27.076Z,32.49
2022-08-17T12:24:27.056Z,32.40
2022-08-17T12:25:27.055Z,32.23
2022-08-17T12:26:27.053Z,32.40
2022-08-17T12:28:04.150Z,32.40
2022-08-17T12:28:28.021Z,32.33
2022-08-17T12:29:35.418Z,32.07
2022-08-17T12:30:29.027Z,32.14
2022-08-17T12:31:27.374Z,32.08
2022-08-17T12:32:27.002Z,32.07
2022-08-17T12:33:27.927Z,32.01
2022-08-17T12:34:27.007Z,31.99
2022-08-17T12:35:26.970Z,31.89
2022-08-17T12:36:26.979Z,31.81
2022-08-17T12:37:26.983Z,31.81
2022-08-17T12:38:32.962Z,31.73
2022-08-17T12:39:27.971Z,31.61
2022-08-17T12:40:28.758Z,31.52
2022-08-17T12:42:34.178Z,31.18
2022-08-17T12:43:34.170Z,31.17
2022-08-17T12:44:34.158Z,31.02
2022-08-17T12:45:34.148Z,31.05
2022-08-17T12:46:34.156Z,30.92
2022-08-17T12:47:34.146Z,30.85
2022-08-17T12:48:34.210Z,30.80
2022-08-17T12:49:34.129Z,30.66
2022-08-17T12:50:34.116Z,30.66
2022-08-17T12:51:35.656Z,30.62
2022-08-17T12:52:34.113Z,30.51
2022-08-17T12:53:34.153Z,30.39
2022-08-17T12:54:34.085Z,30.28
2022-08-17T12:55:34.155Z,30.05